Elma, Washington
Current Conditions -  °F | °C
As of 2:53 AM on Monday 20 Oct 2014 (Local Time) from KSHN Reporting Station
Moderate Rain Moderate Rain  
Wind Chill: 57°   Ceiling: 1100
Heat Index: 57°   Visibility: 3mi
Dew Point: 56°   Wind: 3mph
Humidity: 96%   Direction: 130°SE
Pressure: 29.68"   Gusts: NA
Location:  47°N, 123.41°W
Report Text: KSHN 200953Z AUTO 13003KT 3SM RA BR FEW005 OVC011 14/13 A2968 RMK AO2 CIG 008V014 SLP050 P0002 T01390133 TSNO $
Loading
Personal Weather Stations






























Interactive Weather Map
Tropical Storm Tracking
New forecast layout! Learn more

10-Day Weather Forecast

Advertisements
Track Severe Weather on mobile